EmailTwitter


Observations de surface / France / LFBO (07630)

Régions: Québec | Canada | États-Unis | Europe | France | UK | Ailleurs
Station
Affichage
Infos & localisation pour LFBO (07630) | Aide pour décoder les METARs

Observations prises le 2019-03-25 à 01H00 UTC à TOULOUSE/BLAGNAC, FR (LFBO)

Température: 10.0 Celsius

Point de rosée: 3.0 Celsius

Humidité relative: 62%

Facteur vent: 8.

Vents: Nord-ouest à 15 km/h ou 8 noeuds.

Pression au niveau moyen de la mer: 102.40 kilopascals.

Observation METAR:

LFBO 250100Z AUTO 32008KT CAVOK 10/03 Q1024 NOSIG=